createdAt,value
2019-05-12T00:00:24.928Z,7.05
2019-05-12T00:02:53.884Z,7.01
2019-05-12T00:05:22.481Z,6.98
2019-05-12T00:07:52.711Z,6.91
2019-05-12T00:10:23.016Z,6.93
2019-05-12T00:12:51.771Z,6.87
2019-05-12T00:15:20.709Z,6.92
2019-05-12T00:17:53.129Z,6.89
2019-05-12T00:20:22.060Z,6.94
2019-05-12T00:22:54.164Z,6.90
2019-05-12T00:25:24.403Z,6.85
2019-05-12T00:27:53.317Z,6.87
2019-05-12T00:30:38.782Z,6.86
2019-05-12T00:33:09.317Z,6.86
2019-05-12T00:35:38.082Z,6.92
2019-05-12T00:38:09.010Z,6.87
2019-05-12T00:40:39.109Z,6.82
2019-05-12T00:43:09.111Z,6.83
2019-05-12T00:45:38.953Z,6.72
2019-05-12T00:48:09.743Z,6.68
2019-05-12T00:50:38.813Z,6.70
2019-05-12T00:53:09.548Z,6.49
2019-05-12T00:55:40.235Z,6.47
2019-05-12T00:58:11.163Z,6.41
2019-05-12T01:00:41.534Z,6.46
2019-05-12T01:03:13.214Z,6.38
2019-05-12T01:05:41.774Z,6.30
2019-05-12T01:08:14.989Z,6.20
2019-05-12T01:10:43.724Z,6.24
2019-05-12T01:13:12.607Z,6.25
2019-05-12T01:15:41.592Z,6.19
2019-05-12T01:18:12.710Z,6.15
2019-05-12T01:20:41.449Z,6.01
2019-05-12T01:23:11.670Z,5.96
2019-05-12T01:25:40.560Z,5.89
2019-05-12T01:28:13.989Z,5.84
2019-05-12T01:30:43.251Z,5.75
2019-05-12T01:33:15.799Z,5.71
2019-05-12T01:35:44.361Z,5.73
2019-05-12T01:38:14.401Z,5.60
2019-05-12T01:40:47.496Z,5.68
2019-05-12T01:43:18.683Z,5.67
2019-05-12T01:45:48.259Z,5.60
2019-05-12T01:48:18.828Z,5.55
2019-05-12T01:50:47.807Z,5.53
2019-05-12T01:53:18.098Z,5.57
2019-05-12T01:55:48.667Z,5.55
2019-05-12T01:58:19.288Z,5.63
2019-05-12T02:00:50.151Z,5.63
2019-05-12T02:03:20.097Z,5.51
2019-05-12T02:05:51.713Z,5.47
2019-05-12T02:08:31.154Z,5.55
2019-05-12T02:11:21.138Z,5.54
2019-05-12T02:13:51.258Z,5.53
2019-05-12T02:16:20.963Z,5.54
2019-05-12T02:18:52.003Z,5.65
2019-05-12T02:21:20.550Z,5.65
2019-05-12T02:23:49.119Z,5.65
2019-05-12T02:26:18.947Z,5.56
2019-05-12T02:28:51.029Z,5.61
2019-05-12T02:31:20.913Z,5.56
2019-05-12T02:33:49.951Z,5.57
2019-05-12T02:36:18.675Z,5.53
2019-05-12T02:38:49.182Z,5.59
2019-05-12T02:41:19.633Z,5.58
2019-05-12T02:43:50.244Z,5.50
2019-05-12T02:46:26.588Z,5.48
2019-05-12T02:48:55.705Z,5.54
2019-05-12T02:51:27.247Z,5.47
2019-05-12T02:53:56.222Z,5.45
2019-05-12T02:56:31.669Z,5.40
2019-05-12T02:59:00.564Z,5.45
2019-05-12T03:01:34.747Z,5.34
2019-05-12T03:04:05.402Z,5.25
2019-05-12T03:06:35.741Z,5.22
2019-05-12T03:09:07.201Z,5.22
2019-05-12T03:11:37.947Z,5.20
2019-05-12T03:14:11.031Z,5.13
2019-05-12T03:16:39.604Z,4.96
2019-05-12T03:19:08.509Z,4.96
2019-05-12T03:21:38.720Z,4.97
2019-05-12T03:24:07.626Z,4.92
2019-05-12T03:26:36.586Z,4.89
2019-05-12T03:29:06.246Z,4.86
2019-05-12T03:31:39.849Z,4.88
2019-05-12T03:34:09.281Z,4.86
2019-05-12T03:36:41.937Z,4.78
2019-05-12T03:39:08.513Z,4.76
2019-05-12T03:41:38.862Z,4.76
2019-05-12T03:44:07.761Z,4.79
2019-05-12T03:46:36.309Z,4.85
2019-05-12T03:49:05.853Z,4.89
2019-05-12T03:51:35.140Z,4.91
2019-05-12T03:54:06.431Z,4.99
2019-05-12T03:56:37.227Z,5.09
2019-05-12T03:59:06.156Z,5.18
2019-05-12T04:01:36.423Z,5.15
2019-05-12T04:04:05.825Z,5.20
2019-05-12T04:06:35.028Z,5.48
2019-05-12T04:09:06.637Z,5.88
2019-05-12T04:11:35.815Z,6.05
2019-05-12T04:14:05.611Z,6.02
2019-05-12T04:16:36.269Z,5.92
2019-05-12T04:19:06.552Z,5.91
2019-05-12T04:21:37.387Z,5.76
2019-05-12T04:24:06.413Z,5.69
2019-05-12T04:26:37.520Z,5.77
2019-05-12T04:29:06.485Z,5.95
2019-05-12T04:31:37.430Z,6.16
2019-05-12T04:34:08.316Z,6.11
2019-05-12T04:36:37.299Z,6.21
2019-05-12T04:39:09.094Z,6.34
2019-05-12T04:41:37.809Z,6.17
2019-05-12T04:44:09.596Z,6.28
2019-05-12T04:46:38.151Z,6.41
2019-05-12T04:49:08.204Z,6.49
2019-05-12T04:51:36.932Z,6.50
2019-05-12T04:54:08.562Z,6.68
2019-05-12T04:56:40.615Z,6.53
2019-05-12T04:59:15.777Z,6.44
2019-05-12T05:01:45.331Z,6.54
2019-05-12T05:04:15.631Z,6.63
2019-05-12T05:06:44.933Z,6.59
2019-05-12T05:09:14.536Z,6.67
2019-05-12T05:11:45.053Z,6.66
2019-05-12T05:14:14.415Z,6.80
2019-05-12T05:16:45.140Z,6.94
2019-05-12T05:19:16.076Z,7.18
2019-05-12T05:21:44.682Z,7.42
2019-05-12T05:24:14.259Z,7.68
2019-05-12T05:26:43.645Z,7.61
2019-05-12T05:29:13.493Z,7.96
2019-05-12T05:31:44.146Z,8.46
2019-05-12T05:34:14.839Z,8.69
2019-05-12T05:36:44.935Z,8.68
2019-05-12T05:39:15.046Z,8.62
2019-05-12T05:41:46.482Z,8.67
2019-05-12T05:44:15.529Z,8.62
2019-05-12T05:46:49.908Z,8.96
2019-05-12T05:49:19.565Z,8.95
2019-05-12T05:51:54.204Z,8.69
2019-05-12T05:54:24.757Z,8.72
2019-05-12T05:56:58.062Z,8.67
2019-05-12T05:59:22.017Z,8.89
2019-05-12T06:01:52.526Z,9.13
2019-05-12T06:04:26.470Z,8.72
2019-05-12T06:06:56.141Z,8.46
2019-05-12T06:09:24.963Z,8.51
2019-05-12T06:11:59.176Z,8.58
2019-05-12T06:14:26.936Z,8.46
2019-05-12T06:16:55.941Z,8.57
2019-05-12T06:19:29.112Z,8.58
2019-05-12T06:22:00.903Z,8.77
2019-05-12T06:24:29.814Z,8.80
2019-05-12T06:27:00.942Z,8.71
2019-05-12T06:29:33.316Z,8.95
2019-05-12T06:32:06.226Z,9.08
2019-05-12T06:34:38.763Z,8.66
2019-05-12T06:37:11.816Z,9.16
2019-05-12T06:39:38.077Z,9.54
2019-05-12T06:42:14.222Z,9.08
2019-05-12T06:44:43.753Z,9.09
2019-05-12T06:47:14.344Z,9.23
2019-05-12T06:49:48.763Z,9.65
2019-05-12T06:52:17.603Z,9.89
2019-05-12T06:54:51.378Z,9.89
2019-05-12T06:57:24.887Z,9.80
2019-05-12T06:59:51.147Z,9.67
2019-05-12T07:02:24.315Z,9.67
2019-05-12T07:04:58.998Z,10.12
2019-05-12T07:07:27.599Z,10.18
2019-05-12T07:10:02.333Z,10.34
2019-05-12T07:12:32.799Z,10.14
2019-05-12T07:14:58.552Z,10.43
2019-05-12T07:17:45.495Z,10.43
2019-05-12T07:20:18.705Z,10.62
2019-05-12T07:22:48.598Z,10.53
2019-05-12T07:25:22.885Z,10.55
2019-05-12T07:27:55.381Z,10.42
2019-05-12T07:30:31.741Z,10.54
2019-05-12T07:33:00.939Z,10.90
2019-05-12T07:35:29.783Z,11.15
2019-05-12T07:38:00.299Z,11.04
2019-05-12T07:40:34.747Z,10.83
2019-05-12T07:43:03.799Z,10.91
2019-05-12T07:45:33.994Z,10.68
2019-05-12T07:48:09.960Z,11.09
2019-05-12T07:50:34.793Z,11.13
2019-05-12T07:53:04.460Z,11.30
2019-05-12T07:55:34.320Z,11.47
2019-05-12T07:58:14.194Z,11.75
2019-05-12T08:00:41.015Z,11.62
2019-05-12T08:03:20.891Z,11.39
2019-05-12T08:05:43.885Z,11.37
2019-05-12T08:08:14.480Z,11.20
2019-05-12T08:10:44.714Z,11.38
2019-05-12T08:13:18.485Z,11.73
2019-05-12T08:15:50.227Z,11.64
2019-05-12T08:18:17.818Z,11.83
2019-05-12T08:20:47.146Z,11.94
2019-05-12T08:23:17.761Z,12.45
2019-05-12T08:25:46.648Z,11.95
2019-05-12T08:28:19.100Z,11.51
2019-05-12T08:30:52.201Z,11.06
2019-05-12T08:33:18.413Z,11.27
2019-05-12T08:35:47.165Z,11.86
2019-05-12T08:38:17.853Z,12.08
2019-05-12T08:40:51.139Z,12.39
2019-05-12T08:43:19.595Z,12.81
2019-05-12T08:45:48.519Z,12.57
2019-05-12T08:48:21.853Z,11.77
2019-05-12T08:50:47.722Z,11.60
2019-05-12T08:53:20.710Z,11.73
2019-05-12T08:55:48.476Z,12.04
2019-05-12T08:58:30.316Z,12.10
2019-05-12T09:00:50.662Z,12.30
2019-05-12T09:03:20.550Z,12.25
2019-05-12T09:05:49.667Z,12.37
2019-05-12T09:08:18.524Z,12.69
2019-05-12T09:10:47.268Z,13.13
2019-05-12T09:13:17.380Z,13.04
2019-05-12T09:15:46.539Z,13.23
2019-05-12T09:18:15.085Z,12.74
2019-05-12T09:20:48.824Z,12.91
2019-05-12T09:23:15.719Z,12.71
2019-05-12T09:25:48.489Z,13.08
2019-05-12T09:28:17.480Z,13.60
2019-05-12T09:30:49.460Z,13.97
2019-05-12T09:33:21.489Z,13.85
2019-05-12T09:35:50.704Z,13.29
2019-05-12T09:38:24.108Z,12.88
2019-05-12T10:05:41.020Z,13.37
2019-05-12T10:08:07.755Z,13.43
2019-05-12T10:10:40.232Z,14.08
2019-05-12T10:13:08.917Z,14.62
2019-05-12T10:15:37.811Z,14.60
2019-05-12T10:18:11.055Z,14.01
2019-05-12T10:20:40.366Z,13.96
2019-05-12T10:23:10.218Z,13.78
2019-05-12T10:25:39.717Z,13.96
2019-05-12T10:28:12.762Z,14.17
2019-05-12T10:30:40.662Z,14.45
2019-05-12T10:33:09.537Z,15.01
2019-05-12T10:35:38.465Z,14.83
2019-05-12T10:38:10.621Z,14.69
2019-05-12T10:40:39.174Z,14.50
2019-05-12T10:43:09.320Z,14.37
2019-05-12T10:45:39.236Z,14.79
2019-05-12T10:48:07.958Z,15.11
2019-05-12T10:50:36.508Z,14.43
2019-05-12T10:53:09.976Z,14.57
2019-05-12T10:55:38.076Z,14.64
2019-05-12T10:58:08.306Z,14.89
2019-05-12T11:00:36.863Z,14.97
2019-05-12T11:03:12.183Z,15.26
2019-05-12T11:05:35.876Z,15.30
2019-05-12T11:08:10.802Z,14.04
2019-05-12T11:10:36.432Z,14.16
2019-05-12T11:13:08.431Z,14.47
2019-05-12T11:15:39.638Z,14.14
2019-05-12T11:18:20.723Z,14.87
2019-05-12T11:20:49.625Z,15.09
2019-05-12T11:23:19.856Z,14.85
2019-05-12T11:25:48.397Z,15.22
2019-05-12T11:28:21.728Z,15.10
2019-05-12T11:30:50.286Z,15.42
2019-05-12T11:33:18.955Z,15.38
2019-05-12T11:35:51.362Z,15.69
2019-05-12T11:38:28.473Z,15.93
2019-05-12T11:40:57.665Z,15.56
2019-05-12T11:43:29.576Z,15.68
2019-05-12T11:45:56.908Z,15.78
2019-05-12T11:48:27.336Z,16.08
2019-05-12T11:50:57.906Z,15.31
2019-05-12T11:53:30.632Z,15.56
2019-05-12T11:56:02.230Z,15.38
2019-05-12T11:58:33.526Z,15.64
2019-05-12T12:01:07.993Z,15.44
2019-05-12T12:03:33.990Z,15.45
2019-05-12T12:06:02.731Z,15.26
2019-05-12T12:08:37.147Z,14.93
2019-05-12T12:11:10.532Z,14.92
2019-05-12T12:13:36.272Z,15.35
2019-05-12T12:16:06.875Z,15.78
2019-05-12T12:18:37.767Z,16.17
2019-05-12T12:21:07.825Z,16.43
2019-05-12T12:23:40.920Z,16.25
2019-05-12T12:26:10.474Z,16.18
2019-05-12T12:28:39.225Z,16.38
2019-05-12T12:31:07.978Z,16.43
2019-05-12T12:33:40.533Z,16.74
2019-05-12T12:36:07.029Z,16.99
2019-05-12T12:38:56.503Z,16.73
2019-05-12T12:41:25.258Z,16.58
2019-05-12T12:43:54.228Z,16.37
2019-05-12T12:46:27.178Z,16.20
2019-05-12T12:49:00.163Z,15.76
2019-05-12T12:51:26.407Z,15.60
2019-05-12T12:53:55.186Z,15.71
2019-05-12T12:56:28.393Z,16.03
2019-05-12T12:58:55.475Z,16.15
2019-05-12T13:01:28.522Z,16.08
2019-05-12T13:03:59.387Z,16.15
2019-05-12T13:06:27.569Z,15.78
2019-05-12T13:08:56.166Z,14.86
2019-05-12T13:11:33.087Z,14.95
2019-05-12T13:13:55.682Z,14.70
2019-05-12T13:16:24.250Z,14.64
2019-05-12T13:18:55.071Z,14.79
2019-05-12T13:21:23.692Z,14.84
2019-05-12T13:23:53.894Z,14.71
2019-05-12T13:26:23.916Z,14.83
2019-05-12T13:28:54.911Z,14.50
2019-05-12T13:31:24.310Z,14.51
2019-05-12T13:33:54.794Z,14.30
2019-05-12T13:36:24.208Z,14.29
2019-05-12T13:38:53.372Z,14.56
2019-05-12T13:41:23.641Z,14.98
2019-05-12T13:43:56.141Z,15.38
2019-05-12T13:46:24.692Z,15.40
2019-05-12T13:48:59.670Z,15.00
2019-05-12T13:51:26.215Z,15.24
2019-05-12T13:53:55.196Z,14.95
2019-05-12T13:56:31.319Z,15.01
2019-05-12T13:58:54.590Z,14.54
2019-05-12T14:01:24.901Z,14.32
2019-05-12T14:03:53.946Z,14.16
2019-05-12T14:06:31.538Z,14.28
2019-05-12T14:08:55.919Z,13.97
2019-05-12T14:11:24.546Z,14.27
2019-05-12T14:13:53.688Z,14.15
2019-05-12T14:16:23.884Z,13.92
2019-05-12T14:18:57.038Z,13.75
2019-05-12T14:21:24.431Z,14.12
2019-05-12T14:23:53.295Z,13.79
2019-05-12T14:26:24.347Z,14.20
2019-05-12T14:28:54.862Z,14.83
2019-05-12T14:31:30.136Z,15.27
2019-05-12T14:33:54.427Z,15.47
2019-05-12T14:36:26.525Z,15.35
2019-05-12T14:38:53.626Z,15.64
2019-05-12T14:41:26.523Z,15.84
2019-05-12T14:44:01.396Z,15.19
2019-05-12T14:46:24.896Z,14.44
2019-05-12T14:48:55.035Z,14.07
2019-05-12T14:51:24.581Z,14.11
2019-05-12T14:53:53.669Z,14.03
2019-05-12T14:56:24.270Z,14.14
2019-05-12T14:58:56.444Z,14.14
2019-05-12T15:01:27.841Z,14.02
2019-05-12T15:03:54.167Z,13.83
2019-05-12T15:06:25.763Z,14.19
2019-05-12T15:08:54.945Z,14.63
2019-05-12T15:11:23.836Z,14.47
2019-05-12T15:13:54.116Z,14.80
2019-05-12T15:16:24.447Z,15.48
2019-05-12T15:18:54.138Z,15.43
2019-05-12T15:21:27.390Z,15.46
2019-05-12T15:23:56.781Z,15.55
2019-05-12T15:26:25.544Z,15.24
2019-05-12T15:28:56.909Z,15.13
2019-05-12T15:31:25.493Z,15.60
2019-05-12T15:33:54.050Z,16.08
2019-05-12T15:36:24.511Z,16.08
2019-05-12T15:38:55.816Z,16.10
2019-05-12T15:41:23.880Z,15.58
2019-05-12T15:43:53.665Z,15.40
2019-05-12T15:46:24.550Z,15.41
2019-05-12T15:48:53.612Z,15.83
2019-05-12T15:51:22.387Z,15.64
2019-05-12T15:53:51.131Z,15.74
2019-05-12T15:56:25.395Z,14.88
2019-05-12T15:58:50.667Z,14.87
2019-05-12T16:01:20.855Z,14.51
2019-05-12T16:03:49.421Z,14.22
2019-05-12T16:06:18.212Z,13.88
2019-05-12T16:08:46.945Z,13.49
2019-05-12T16:11:17.458Z,13.19
2019-05-12T16:13:54.769Z,13.49
2019-05-12T16:16:18.519Z,13.90
2019-05-12T16:18:50.625Z,14.41
2019-05-12T16:21:18.647Z,14.71
2019-05-12T16:23:48.908Z,14.88
2019-05-12T16:26:17.819Z,14.48
2019-05-12T16:28:46.358Z,14.57
2019-05-12T16:31:14.929Z,14.11
2019-05-12T16:33:43.760Z,14.12
2019-05-12T16:36:14.553Z,13.96
2019-05-12T16:38:44.544Z,13.99
2019-05-12T16:41:14.202Z,14.15
2019-05-12T16:43:44.167Z,14.31
2019-05-12T16:46:14.288Z,14.34
2019-05-12T16:48:48.379Z,14.34
2019-05-12T16:51:14.205Z,14.24
2019-05-12T16:53:43.611Z,14.10
2019-05-12T16:56:14.847Z,13.89
2019-05-12T16:58:43.934Z,13.82
2019-05-12T17:01:14.387Z,13.86
2019-05-12T17:03:46.666Z,14.19
2019-05-12T17:06:15.529Z,14.33
2019-05-12T17:08:44.273Z,14.16
2019-05-12T17:11:24.389Z,14.31
2019-05-12T17:13:47.360Z,14.20
2019-05-12T17:16:16.350Z,14.26
2019-05-12T17:18:45.309Z,14.16
2019-05-12T17:21:14.425Z,14.23
2019-05-12T17:23:44.487Z,14.14
2019-05-12T17:26:14.027Z,14.12
2019-05-12T17:28:44.376Z,14.06
2019-05-12T17:31:13.257Z,13.94
2019-05-12T17:33:43.757Z,13.78
2019-05-12T17:36:17.558Z,13.72
2019-05-12T17:38:44.123Z,13.54
2019-05-12T17:41:17.447Z,13.47
2019-05-12T17:43:52.096Z,13.45
2019-05-12T17:46:18.105Z,13.32
2019-05-12T17:48:46.228Z,13.33
2019-05-12T17:51:14.790Z,13.19
2019-05-12T17:53:43.746Z,13.31
2019-05-12T17:56:13.969Z,13.35
2019-05-12T17:58:46.997Z,13.35
2019-05-12T18:01:15.587Z,13.26
2019-05-12T18:03:48.804Z,13.49
2019-05-12T18:06:20.538Z,13.46
2019-05-12T18:08:50.308Z,13.62
2019-05-12T18:11:19.027Z,13.88
2019-05-12T18:13:47.610Z,14.08
2019-05-12T18:16:20.771Z,13.62
2019-05-12T18:18:46.870Z,13.74
2019-05-12T18:21:21.454Z,13.52
2019-05-12T18:23:46.236Z,13.25
2019-05-12T18:26:16.984Z,13.07
2019-05-12T18:28:45.553Z,12.79
2019-05-12T18:31:16.132Z,12.44
2019-05-12T18:33:52.093Z,12.18
2019-05-12T18:36:14.971Z,11.96
2019-05-12T18:38:45.217Z,11.89
2019-05-12T18:41:14.164Z,11.60
2019-05-12T18:43:43.484Z,11.54
2019-05-12T18:46:14.148Z,11.44
2019-05-12T18:48:44.398Z,11.25
2019-05-12T18:51:17.001Z,11.25
2019-05-12T18:53:43.941Z,11.10
2019-05-12T18:56:17.183Z,11.10
2019-05-12T18:58:45.002Z,11.03
2019-05-12T19:01:14.342Z,11.00
2019-05-12T19:03:49.676Z,10.91
2019-05-12T19:06:14.050Z,10.79
2019-05-12T19:08:42.835Z,10.72
2019-05-12T19:11:20.182Z,10.55
2019-05-12T19:13:51.633Z,10.42
2019-05-12T19:16:17.890Z,10.28
2019-05-12T19:18:48.145Z,10.15
2019-05-12T19:21:20.094Z,9.94
2019-05-12T19:23:48.689Z,9.79
2019-05-12T19:26:18.605Z,9.79
2019-05-12T19:28:52.986Z,9.71
2019-05-12T19:31:19.064Z,9.60
2019-05-12T19:33:56.655Z,9.49
2019-05-12T19:36:44.877Z,9.39
2019-05-12T19:39:11.222Z,9.22
2019-05-12T19:41:43.498Z,8.99
2019-05-12T19:44:13.491Z,8.85
2019-05-12T19:46:47.656Z,8.71
2019-05-12T19:49:14.060Z,8.60
2019-05-12T19:51:44.226Z,8.59
2019-05-12T19:54:19.050Z,8.58
2019-05-12T19:56:44.839Z,8.65
2019-05-12T19:59:16.752Z,8.52
2019-05-12T20:01:46.879Z,8.42
2019-05-12T20:04:29.723Z,8.41
2019-05-12T20:06:46.518Z,8.40
2019-05-12T20:09:15.245Z,8.49
2019-05-12T20:11:46.875Z,8.49
2019-05-12T20:14:21.363Z,8.36
2019-05-12T20:16:48.850Z,8.33
2019-05-12T20:19:19.941Z,8.27
2019-05-12T20:21:48.164Z,8.13
2019-05-12T20:24:17.690Z,8.09
2019-05-12T20:26:47.840Z,7.98
2019-05-12T20:29:18.059Z,8.04
2019-05-12T20:31:48.629Z,7.99
2019-05-12T20:34:18.278Z,7.99
2019-05-12T20:36:48.435Z,7.99
2019-05-12T20:39:21.638Z,8.14
2019-05-12T20:41:54.479Z,8.05
2019-05-12T20:44:21.127Z,7.95
2019-05-12T20:46:50.128Z,7.99
2019-05-12T20:49:24.150Z,7.98
2019-05-12T20:52:03.847Z,7.83
2019-05-12T20:54:25.999Z,7.90
2019-05-12T20:57:02.257Z,7.89
2019-05-12T20:59:28.765Z,7.80
2019-05-12T21:01:57.354Z,7.66
2019-05-12T21:04:31.122Z,7.65
2019-05-12T21:06:58.436Z,7.60
2019-05-12T21:09:26.997Z,7.50
2019-05-12T21:11:59.107Z,7.32
2019-05-12T21:14:27.859Z,7.36
2019-05-12T21:16:56.618Z,7.29
2019-05-12T21:19:29.252Z,7.36
2019-05-12T21:21:59.322Z,7.39
2019-05-12T21:24:34.372Z,7.32
2019-05-12T21:26:58.752Z,7.26
2019-05-12T21:29:29.911Z,7.23
2019-05-12T21:32:02.847Z,7.22
2019-05-12T21:34:35.173Z,7.20
2019-05-12T21:37:06.733Z,7.14
2019-05-12T21:39:40.213Z,7.14
2019-05-12T21:42:05.862Z,6.99
2019-05-12T21:44:34.748Z,6.87
2019-05-12T21:47:10.191Z,6.69
2019-05-12T21:49:37.437Z,6.59
2019-05-12T21:52:07.603Z,6.51
2019-05-12T21:54:39.572Z,6.37
2019-05-12T21:57:11.931Z,6.19
2019-05-12T21:59:40.791Z,6.17
2019-05-12T22:02:09.772Z,6.09
2019-05-12T22:04:45.044Z,5.96
2019-05-12T22:07:15.022Z,5.92
2019-05-12T22:09:46.896Z,5.74
2019-05-12T22:12:15.604Z,5.72
2019-05-12T22:14:46.254Z,5.61
2019-05-12T22:17:16.671Z,5.47
2019-05-12T22:19:46.584Z,5.38
2019-05-12T22:22:19.638Z,5.36
2019-05-12T22:24:47.114Z,5.32
2019-05-12T22:27:21.787Z,5.22
2019-05-12T22:29:48.065Z,5.12
2019-05-12T22:32:19.158Z,5.03
2019-05-12T22:34:47.692Z,4.98
2019-05-12T22:37:18.034Z,4.89
2019-05-12T22:39:49.362Z,4.89
2019-05-12T22:42:21.671Z,4.98
2019-05-12T22:44:52.987Z,4.93
2019-05-12T22:47:23.991Z,4.90
2019-05-12T22:49:56.902Z,4.82
2019-05-12T22:52:25.252Z,4.85
2019-05-12T22:54:55.449Z,4.78
2019-05-12T22:57:29.251Z,4.72
2019-05-12T22:59:57.565Z,4.65
2019-05-12T23:02:29.830Z,4.55
2019-05-12T23:04:57.118Z,4.49
2019-05-12T23:07:29.652Z,4.42
2019-05-12T23:10:00.585Z,4.32
2019-05-12T23:12:27.352Z,4.22
2019-05-12T23:15:02.992Z,4.21
2019-05-12T23:17:28.164Z,4.24
2019-05-12T23:19:56.903Z,4.19
2019-05-12T23:22:29.473Z,4.18
2019-05-12T23:24:57.615Z,4.22
2019-05-12T23:27:29.857Z,4.21
2019-05-12T23:30:01.587Z,4.11
2019-05-12T23:32:28.210Z,4.13
2019-05-12T23:35:00.224Z,4.05
2019-05-12T23:37:30.209Z,4.02
2019-05-12T23:39:59.387Z,4.01
2019-05-12T23:42:27.983Z,3.96
2019-05-12T23:44:58.222Z,3.92
2019-05-12T23:47:27.117Z,3.96
2019-05-12T23:49:55.704Z,3.88
2019-05-12T23:52:26.004Z,3.86
2019-05-12T23:54:56.125Z,3.72
2019-05-12T23:57:24.844Z,3.66
2019-05-12T23:59:55.071Z,3.59
